Time;durP1;ratioP1;P1;durP2;ratioP2;P2;SDS_P1;SDS_P2;PMS_P1;PMS_P2;Temp;Humidity;BMP_temperature;BMP_pressure;BME280_temperature;BME280_humidity;BME280_pressure;Samples;Min_cycle;Max_cycle;Signal;HPM_P1;HPM_P2
2023/11/25 00:01:58;;;;;;;1.25;0.85;;;;;;;-0.47;100.00;97226.09;6094462;19;20006;-74
2023/11/25 00:03:58;;;;;;;1.63;1.13;;;;;;;-0.47;100.00;97236.97;6094727;19;20509;-74
2023/11/25 00:05:58;;;;;;;2.30;1.05;;;;;;;-0.51;100.00;97244.97;6094595;19;20568;-74
2023/11/25 00:07:59;;;;;;;1.33;1.20;;;;;;;-0.47;100.00;97250.56;6092764;19;20014;-74
2023/11/25 00:09:59;;;;;;;1.45;1.33;;;;;;;-0.48;100.00;97265.28;6094423;19;20024;-74
2023/11/25 00:12:00;;;;;;;3.80;1.30;;;;;;;-0.42;100.00;97272.06;6094978;19;19999;-74
2023/11/25 00:14:00;;;;;;;1.60;1.20;;;;;;;-0.38;100.00;97270.28;6093885;19;20003;-74
2023/11/25 00:16:00;;;;;;;4.65;1.10;;;;;;;-0.34;100.00;97277.41;6091380;19;20002;-74
2023/11/25 00:18:02;;;;;;;2.22;1.85;;;;;;;-0.36;100.00;97278.88;6093346;19;20014;-74
2023/11/25 00:20:05;;;;;;;1.92;1.10;;;;;;;-0.35;100.00;97275.81;6094038;19;20383;-74
2023/11/25 00:22:05;;;;;;;3.60;2.08;;;;;;;-0.34;100.00;97282.03;6093110;19;20328;-74
2023/11/25 00:24:07;;;;;;;2.05;1.30;;;;;;;-0.33;100.00;97279.00;6092335;19;20002;-74
2023/11/25 00:26:07;;;;;;;1.55;1.30;;;;;;;-0.30;100.00;97289.22;6093517;19;20613;-74
2023/11/25 00:28:10;;;;;;;2.80;1.48;;;;;;;-0.32;100.00;97293.41;6096904;19;20006;-74
2023/11/25 00:30:10;;;;;;;3.20;1.13;;;;;;;-0.36;100.00;97295.19;6101649;19;20013;-74
2023/11/25 00:32:10;;;;;;;2.00;1.50;;;;;;;-0.41;100.00;97290.78;6099917;19;19999;-74
2023/11/25 00:34:11;;;;;;;2.75;1.35;;;;;;;-0.42;100.00;97293.78;6102507;19;20535;-74
2023/11/25 00:36:11;;;;;;;3.97;1.35;;;;;;;-0.42;100.00;97293.78;6101218;19;20474;-74
2023/11/25 00:38:12;;;;;;;2.28;1.48;;;;;;;-0.37;100.00;97305.25;6099905;19;19998;-74
2023/11/25 00:40:15;;;;;;;5.13;1.58;;;;;;;-0.43;100.00;97306.59;6102992;19;20463;-74
2023/11/25 00:42:15;;;;;;;4.80;1.27;;;;;;;-0.48;100.00;97295.94;6102519;19;20390;-74
2023/11/25 00:44:16;;;;;;;5.35;1.55;;;;;;;-0.42;100.00;97304.66;6102156;19;20066;-74
2023/11/25 00:46:17;;;;;;;3.78;1.75;;;;;;;-0.39;100.00;97307.53;6095764;19;20376;-74
2023/11/25 00:48:17;;;;;;;3.42;1.30;;;;;;;-0.42;100.00;97312.81;6098304;19;20033;-74
2023/11/25 00:50:19;;;;;;;4.20;1.50;;;;;;;-0.38;100.00;97311.03;6101246;19;20020;-74
2023/11/25 00:52:19;;;;;;;2.80;1.50;;;;;;;-0.31;100.00;97316.72;6101152;19;20860;-74
2023/11/25 00:54:19;;;;;;;5.00;1.50;;;;;;;-0.34;100.00;97320.09;6100742;19;20005;-74
2023/11/25 00:56:20;;;;;;;3.40;2.00;;;;;;;-0.33;100.00;97319.00;6102060;19;20019;-75
2023/11/25 00:58:20;;;;;;;8.68;1.80;;;;;;;-0.36;100.00;97322.34;6098363;19;20022;-74
2023/11/25 01:00:24;;;;;;;4.20;1.40;;;;;;;-0.36;100.00;97325.88;6101708;19;20018;-74
2023/11/25 01:02:24;;;;;;;2.65;1.60;;;;;;;-0.41;100.00;97336.97;6103137;19;20328;-74
2023/11/25 01:04:24;;;;;;;3.28;1.58;;;;;;;-0.39;100.00;97342.06;6101530;19;20081;-74
2023/11/25 01:06:25;;;;;;;4.50;1.60;;;;;;;-0.37;100.00;97350.66;6100948;19;20405;-74
2023/11/25 01:08:29;;;;;;;6.13;1.48;;;;;;;-0.41;100.00;97347.84;6096824;19;20006;-74
2023/11/25 01:10:29;;;;;;;2.50;1.40;;;;;;;-0.33;100.00;97343.44;6102590;19;20699;-74
2023/11/25 01:12:30;;;;;;;1.75;1.23;;;;;;;-0.26;100.00;97357.28;6101445;19;20010;-74
2023/11/25 01:14:31;;;;;;;2.50;1.30;;;;;;;-0.26;100.00;97364.63;6099947;19;20007;-74
2023/11/25 01:16:32;;;;;;;3.67;1.70;;;;;;;-0.17;100.00;97368.84;6101496;19;20506;-74
2023/11/25 01:18:32;;;;;;;4.63;1.30;;;;;;;-0.16;100.00;97364.25;6100423;19;20011;-74
2023/11/25 01:20:32;;;;;;;3.30;1.52;;;;;;;-0.08;100.00;97375.03;6101363;19;20019;-74
2023/11/25 01:22:32;;;;;;;2.85;1.52;;;;;;;-0.14;100.00;97370.91;6100610;19;20010;-74
2023/11/25 01:24:33;;;;;;;1.50;1.40;;;;;;;-0.08;100.00;97379.66;6102140;19;20013;-74
2023/11/25 01:26:33;;;;;;;2.65;1.42;;;;;;;-0.06;100.00;97385.56;6100306;19;20019;-74
2023/11/25 01:28:37;;;;;;;1.63;1.17;;;;;;;-0.01;100.00;97388.06;6100762;19;20030;-74
2023/11/25 01:30:39;;;;;;;3.65;1.67;;;;;;;0.03;100.00;97393.63;6098041;19;19999;-74
2023/11/25 01:32:39;;;;;;;5.18;1.65;;;;;;;-0.04;100.00;97392.25;6101962;19;20022;-75
2023/11/25 01:34:39;;;;;;;2.45;1.52;;;;;;;0.02;100.00;97394.75;6099439;19;20007;-74
2023/11/25 01:36:40;;;;;;;1.48;1.33;;;;;;;0.05;100.00;97405.75;6100953;19;20046;-74
2023/11/25 01:38:40;;;;;;;2.45;1.40;;;;;;;0.08;100.00;97415.16;6100252;19;20006;-74
2023/11/25 01:40:41;;;;;;;3.30;1.92;;;;;;;0.01;100.00;97418.44;6101162;19;20078;-74
2023/11/25 01:42:42;;;;;;;5.55;1.77;;;;;;;-0.05;100.00;97422.50;6101587;19;20102;-74
2023/11/25 01:44:43;;;;;;;2.05;1.35;;;;;;;-0.05;100.00;97417.06;6101550;19;20342;-74
2023/11/25 01:46:43;;;;;;;6.13;1.63;;;;;;;-0.05;100.00;97427.94;6100854;19;20074;-74
2023/11/25 01:48:44;;;;;;;2.22;1.35;;;;;;;-0.08;100.00;97432.13;6099190;19;20007;-75
2023/11/25 01:50:45;;;;;;;3.70;1.52;;;;;;;-0.07;100.00;97431.00;6100592;19;20003;-74
2023/11/25 01:52:47;;;;;;;4.15;1.50;;;;;;;-0.05;100.00;97434.16;6102522;19;20832;-74
2023/11/25 01:54:48;;;;;;;3.97;1.80;;;;;;;-0.01;100.00;97442.44;6101064;19;20419;-74
2023/11/25 01:56:52;;;;;;;2.55;1.60;;;;;;;-0.05;100.00;97436.09;6100276;19;20002;-74
2023/11/25 01:58:53;;;;;;;3.00;1.33;;;;;;;-0.05;100.00;97445.03;6098525;19;20055;-74
2023/11/25 02:00:54;;;;;;;3.97;1.73;;;;;;;-0.02;100.00;97447.09;6101543;19;20014;-74
2023/11/25 02:02:57;;;;;;;6.47;1.70;;;;;;;-0.04;100.00;97451.28;6099123;19;20005;-74
2023/11/25 02:04:57;;;;;;;7.15;1.67;;;;;;;0.00;100.00;97446.78;6099702;19;20030;-74
2023/11/25 02:06:58;;;;;;;3.95;1.30;;;;;;;0.04;100.00;97449.63;6099524;19;20464;-74
2023/11/25 02:08:58;;;;;;;2.47;1.40;;;;;;;-0.02;100.00;97449.81;6100056;19;20281;-74
2023/11/25 02:11:00;;;;;;;4.32;1.52;;;;;;;0.02;100.00;97449.16;6101506;19;20038;-74
2023/11/25 02:13:08;;;;;;;1.92;1.17;;;;;;;-0.01;100.00;97459.56;6101000;19;20011;-74
2023/11/25 02:15:14;;;;;;;1.10;1.00;;;;;;;-0.05;100.00;97450.47;6098673;19;20074;-74
2023/11/25 02:17:14;;;;;;;3.55;1.35;;;;;;;-0.04;100.00;97457.50;6098738;19;20026;-74
2023/11/25 02:19:15;;;;;;;2.58;1.42;;;;;;;-0.09;100.00;97460.41;6099541;19;20011;-74
2023/11/25 02:21:15;;;;;;;1.73;1.20;;;;;;;-0.10;100.00;97463.47;6100261;19;20310;-74
2023/11/25 02:23:17;;;;;;;4.93;1.90;;;;;;;-0.18;100.00;97459.69;6099492;19;20007;-74
2023/11/25 02:25:17;;;;;;;3.30;1.40;;;;;;;-0.25;100.00;97462.16;6097832;19;20007;-74
2023/11/25 02:27:18;;;;;;;5.45;1.52;;;;;;;-0.18;100.00;97469.78;6098275;19;20730;-74
2023/11/25 02:29:19;;;;;;;8.35;1.70;;;;;;;-0.29;100.00;97467.47;6099484;19;20011;-74
2023/11/25 02:31:19;;;;;;;1.63;1.08;;;;;;;-0.30;100.00;97473.25;6098929;19;20011;-74
2023/11/25 02:33:21;;;;;;;6.10;1.80;;;;;;;-0.24;100.00;97471.13;6099278;19;20002;-74
2023/11/25 02:35:22;;;;;;;4.18;1.60;;;;;;;-0.29;100.00;97469.41;6100644;19;20014;-74
2023/11/25 02:37:22;;;;;;;5.28;1.52;;;;;;;-0.40;100.00;97469.00;6097501;19;20339;-74
2023/11/25 02:39:24;;;;;;;3.67;1.80;;;;;;;-0.45;100.00;97469.19;6099586;19;20442;-74
2023/11/25 02:41:24;;;;;;;3.40;1.25;;;;;;;-0.36;100.00;97471.84;6099797;19;20034;-74
2023/11/25 02:43:26;;;;;;;3.60;1.50;;;;;;;-0.39;100.00;97483.38;6099852;19;20418;-74
2023/11/25 02:45:27;;;;;;;3.97;1.35;;;;;;;-0.41;100.00;97478.28;6099780;19;20014;-75
2023/11/25 02:47:29;;;;;;;3.53;1.63;;;;;;;-0.43;100.00;97490.59;6095413;19;20074;-74
2023/11/25 02:49:29;;;;;;;4.95;1.13;;;;;;;-0.44;100.00;97487.06;6100803;19;20028;-74
2023/11/25 02:51:30;;;;;;;4.05;1.30;;;;;;;-0.41;100.00;97485.66;6099078;19;20007;-75
2023/11/25 02:53:30;;;;;;;6.25;1.52;;;;;;;-0.46;100.00;97491.25;6099405;19;20665;-74
2023/11/25 02:55:30;;;;;;;3.00;1.20;;;;;;;-0.43;100.00;97501.47;6100081;19;20002;-76
2023/11/25 02:57:31;;;;;;;4.25;1.10;;;;;;;-0.47;100.00;97501.34;6098413;19;20032;-75
2023/11/25 02:59:32;;;;;;;5.10;1.77;;;;;;;-0.53;100.00;97510.00;6099488;19;20469;-74
2023/11/25 03:01:33;;;;;;;2.50;1.40;;;;;;;-0.59;100.00;97498.53;6100116;19;20003;-74
2023/11/25 03:03:41;;;;;;;3.47;1.42;;;;;;;-0.51;100.00;97521.34;6099660;19;20533;-74
2023/11/25 03:05:42;;;;;;;2.00;1.40;;;;;;;-0.62;100.00;97532.59;6099345;19;20286;-74
2023/11/25 03:07:43;;;;;;;3.70;1.42;;;;;;;-0.55;100.00;97526.63;6098246;19;20003;-74
2023/11/25 03:09:44;;;;;;;2.97;1.27;;;;;;;-0.58;100.00;97524.56;6099019;19;20878;-74
2023/11/25 03:11:45;;;;;;;4.70;1.35;;;;;;;-0.58;100.00;97521.84;6101031;19;20677;-74
2023/11/25 03:13:46;;;;;;;2.15;1.38;;;;;;;-0.66;100.00;97537.09;6103057;19;20014;-75
2023/11/25 03:15:47;;;;;;;4.85;1.48;;;;;;;-0.71;100.00;97536.47;6099467;19;20030;-73
2023/11/25 03:17:47;;;;;;;4.18;1.25;;;;;;;-0.68;100.00;97539.31;6101383;19;20407;-74
2023/11/25 03:19:48;;;;;;;4.00;1.80;;;;;;;-0.64;100.00;97540.28;6102018;19;20573;-75
2023/11/25 03:21:50;;;;;;;2.20;1.10;;;;;;;-0.64;100.00;97536.75;6101735;19;20348;-74
2023/11/25 03:23:51;;;;;;;2.28;1.23;;;;;;;-0.65;100.00;97538.69;6096814;19;20436;-74
2023/11/25 03:25:51;;;;;;;2.95;1.50;;;;;;;-0.62;100.00;97534.50;6096374;19;20018;-76
2023/11/25 03:27:51;;;;;;;2.85;1.10;;;;;;;-0.53;100.00;97535.25;6088487;19;20478;-74
2023/11/25 03:29:52;;;;;;;4.15;1.10;;;;;;;-0.50;100.00;97542.72;6104425;19;20018;-74
2023/11/25 03:31:52;;;;;;;2.22;1.65;;;;;;;-0.50;100.00;97550.09;6103733;19;20011;-74
2023/11/25 03:33:52;;;;;;;2.40;1.33;;;;;;;-0.54;100.00;97554.59;6103883;19;20313;-74
2023/11/25 03:35:53;;;;;;;4.03;1.30;;;;;;;-0.52;100.00;97552.34;6103853;19;20534;-74
2023/11/25 03:37:53;;;;;;;6.90;1.73;;;;;;;-0.48;100.00;97561.44;6099577;19;20258;-74
2023/11/25 03:39:53;;;;;;;4.60;1.30;;;;;;;-0.52;100.00;97560.50;6104052;19;20445;-77
2023/11/25 03:41:54;;;;;;;3.72;1.27;;;;;;;-0.50;100.00;97561.75;6103760;19;20002;-76
2023/11/25 03:43:54;;;;;;;5.15;1.80;;;;;;;-0.52;100.00;97557.78;6102717;19;20011;-76
2023/11/25 03:45:54;;;;;;;4.90;1.20;;;;;;;-0.59;100.00;97561.81;6102573;19;20018;-76
2023/11/25 03:47:55;;;;;;;6.13;1.40;;;;;;;-0.55;100.00;97559.25;6101586;19;19995;-76
2023/11/25 03:49:55;;;;;;;1.10;0.95;;;;;;;-0.60;100.00;97554.78;6102961;19;20074;-76
2023/11/25 03:51:56;;;;;;;3.17;1.25;;;;;;;-0.59;100.00;97544.72;6102910;19;20038;-76
2023/11/25 03:53:56;;;;;;;2.95;1.15;;;;;;;-0.66;100.00;97552.59;6104412;19;20006;-76
2023/11/25 03:55:59;;;;;;;2.50;1.20;;;;;;;-0.64;100.00;97559.28;6102894;19;20546;-76
2023/11/25 03:58:01;;;;;;;3.97;1.17;;;;;;;-0.62;100.00;97553.53;6100809;19;19998;-76
2023/11/25 04:00:01;;;;;;;5.05;1.40;;;;;;;-0.63;100.00;97554.66;6102483;19;20019;-76
2023/11/25 04:02:02;;;;;;;4.85;1.25;;;;;;;-0.61;100.00;97558.63;6101790;19;19998;-76
2023/11/25 04:04:03;;;;;;;2.58;1.20;;;;;;;-0.63;100.00;97560.88;6102679;19;20022;-76
2023/11/25 04:06:04;;;;;;;2.70;1.25;;;;;;;-0.70;100.00;97562.50;6101877;19;20003;-76
2023/11/25 04:08:04;;;;;;;1.85;1.30;;;;;;;-0.75;100.00;97568.91;6100330;19;20013;-76
2023/11/25 04:10:12;;;;;;;3.95;1.33;;;;;;;-0.79;100.00;97565.25;6102868;19;20514;-76
2023/11/25 04:12:13;;;;;;;1.75;1.08;;;;;;;-0.74;100.00;97569.72;6101947;19;20020;-75
2023/11/25 04:14:13;;;;;;;3.60;1.63;;;;;;;-0.79;100.00;97576.13;6102543;19;20325;-75
2023/11/25 04:16:13;;;;;;;3.80;0.98;;;;;;;-0.74;100.00;97589.53;6099921;19;20493;-76
2023/11/25 04:18:14;;;;;;;4.47;1.20;;;;;;;-0.83;100.00;97574.38;6099765;19;20073;-76
2023/11/25 04:20:14;;;;;;;3.65;1.20;;;;;;;-0.90;100.00;97588.47;6103198;19;20062;-75
2023/11/25 04:22:14;;;;;;;8.07;1.58;;;;;;;-0.88;100.00;97573.44;6102056;19;20015;-75
2023/11/25 04:24:15;;;;;;;3.03;1.15;;;;;;;-0.78;100.00;97585.06;6104087;19;20117;-75
2023/11/25 04:26:16;;;;;;;5.38;1.10;;;;;;;-0.83;100.00;97585.25;6101985;19;20003;-76
2023/11/25 04:28:16;;;;;;;2.47;1.17;;;;;;;-0.92;100.00;97574.41;6093641;19;20021;-76
2023/11/25 04:30:17;;;;;;;2.55;1.25;;;;;;;-1.00;100.00;97575.22;6093831;19;20717;-75
2023/11/25 04:32:17;;;;;;;4.00;1.40;;;;;;;-0.94;100.00;97565.78;6094219;19;20030;-75
2023/11/25 04:34:17;;;;;;;5.95;1.25;;;;;;;-0.96;100.00;97568.06;6094101;19;19998;-76
2023/11/25 04:36:18;;;;;;;2.65;1.10;;;;;;;-1.01;100.00;97568.22;6093565;19;20347;-75
2023/11/25 04:38:18;;;;;;;9.43;1.33;;;;;;;-1.12;100.00;97567.78;6092436;19;20006;-75
2023/11/25 04:40:19;;;;;;;1.52;0.90;;;;;;;-1.07;100.00;97580.38;6094118;19;19999;-76
2023/11/25 04:42:19;;;;;;;2.85;1.10;;;;;;;-1.14;100.00;97580.88;6091409;19;20069;-75
2023/11/25 04:44:20;;;;;;;2.42;1.13;;;;;;;-1.22;100.00;97584.41;6093014;19;20349;-75
2023/11/25 04:46:21;;;;;;;3.28;1.10;;;;;;;-1.25;100.00;97580.41;6093129;19;20036;-75
2023/11/25 04:48:21;;;;;;;5.32;1.40;;;;;;;-1.20;100.00;97593.81;6093201;19;20026;-75
2023/11/25 04:50:22;;;;;;;4.28;1.10;;;;;;;-1.26;100.00;97586.16;6093664;19;20387;-75
2023/11/25 04:52:22;;;;;;;1.38;0.95;;;;;;;-1.24;100.00;97600.19;6093736;19;20731;-76
2023/11/25 04:54:22;;;;;;;2.67;1.20;;;;;;;-1.24;100.00;97594.78;6092160;19;20010;-75
2023/11/25 04:56:23;;;;;;;1.20;1.00;;;;;;;-1.28;100.00;97594.63;6091504;19;20110;-75
2023/11/25 04:58:23;;;;;;;3.40;1.83;;;;;;;-1.29;100.00;97594.97;6091687;19;20007;-76
2023/11/25 05:00:24;;;;;;;4.90;1.35;;;;;;;-1.29;100.00;97594.97;6090048;19;20003;-75
2023/11/25 05:02:24;;;;;;;3.95;1.20;;;;;;;-1.33;100.00;97589.38;6092734;19;20015;-75
2023/11/25 05:04:24;;;;;;;3.25;1.85;;;;;;;-1.36;100.00;97600.88;6093165;19;20512;-75
2023/11/25 05:06:25;;;;;;;5.53;1.40;;;;;;;-1.35;100.00;97585.38;6087160;19;20018;-75
2023/11/25 05:08:25;;;;;;;6.53;1.70;;;;;;;-1.39;100.00;97581.72;6088874;19;20260;-76
2023/11/25 05:10:28;;;;;;;3.53;1.20;;;;;;;-1.35;100.00;97582.66;6092518;19;20709;-75
2023/11/25 05:12:28;;;;;;;4.50;1.17;;;;;;;-1.35;100.00;97590.81;6093223;19;20011;-76
2023/11/25 05:14:28;;;;;;;4.80;1.30;;;;;;;-1.37;100.00;97585.72;6090561;19;20600;-76
2023/11/25 05:16:29;;;;;;;3.63;1.45;;;;;;;-1.36;100.00;97591.94;6091533;19;20006;-76
2023/11/25 05:18:30;;;;;;;4.32;0.90;;;;;;;-1.34;100.00;97581.53;6091168;19;20012;-76
2023/11/25 05:20:30;;;;;;;5.45;1.60;;;;;;;-1.38;100.00;97584.13;6091421;19;20003;-76
2023/11/25 05:22:30;;;;;;;2.75;1.25;;;;;;;-1.37;100.00;97574.84;6089604;19;20268;-75
2023/11/25 05:24:31;;;;;;;3.67;1.20;;;;;;;-1.39;100.00;97579.03;6092220;19;20316;-76
2023/11/25 05:26:31;;;;;;;4.25;1.35;;;;;;;-1.38;100.00;97589.53;6092155;19;20007;-76
2023/11/25 05:28:31;;;;;;;5.72;1.50;;;;;;;-1.36;100.00;97590.00;6096558;19;20003;-76
2023/11/25 05:30:32;;;;;;;3.58;1.08;;;;;;;-1.34;100.00;97585.06;6098821;19;20010;-76
2023/11/25 05:32:32;;;;;;;1.95;1.15;;;;;;;-1.33;100.00;97573.06;6100390;19;20116;-75
2023/11/25 05:34:33;;;;;;;6.07;1.58;;;;;;;-1.31;100.00;97573.56;6098164;19;20010;-76
2023/11/25 05:36:33;;;;;;;1.92;1.35;;;;;;;-1.28;100.00;97572.91;6099920;19;20452;-75
2023/11/25 05:38:34;;;;;;;4.15;1.50;;;;;;;-1.31;100.00;97575.50;6099752;19;19999;-75
2023/11/25 05:40:36;;;;;;;4.80;1.50;;;;;;;-1.33;100.00;97561.44;6100994;19;20084;-75
2023/11/25 05:42:41;;;;;;;3.45;1.50;;;;;;;-1.30;100.00;97560.81;6096988;19;20006;-75
2023/11/25 05:44:43;;;;;;;5.32;1.75;;;;;;;-1.32;100.00;97555.69;6099888;19;20003;-75
2023/11/25 05:46:44;;;;;;;3.25;1.10;;;;;;;-1.33;100.00;97550.56;6100467;19;20402;-75
2023/11/25 05:48:44;;;;;;;3.88;1.52;;;;;;;-1.37;100.00;97553.16;6100552;19;20002;-75
2023/11/25 05:50:44;;;;;;;1.77;1.02;;;;;;;-1.39;100.00;97551.88;6101668;19;20006;-75
2023/11/25 05:52:45;;;;;;;2.17;1.30;;;;;;;-1.29;100.00;97560.47;6101617;19;20026;-75
2023/11/25 05:54:46;;;;;;;4.47;1.30;;;;;;;-1.31;100.00;97549.16;6101579;19;20013;-75
2023/11/25 05:56:50;;;;;;;4.20;1.52;;;;;;;-1.33;100.00;97545.94;6100499;19;19998;-75
2023/11/25 05:58:51;;;;;;;6.25;1.67;;;;;;;-1.30;100.00;97552.66;6100071;19;20616;-75
2023/11/25 06:00:51;;;;;;;3.08;1.50;;;;;;;-1.30;100.00;97558.09;6100297;19;20034;-75
2023/11/25 06:02:54;;;;;;;2.22;1.45;;;;;;;-1.27;100.00;97555.50;6101794;19;20011;-75
2023/11/25 06:04:54;;;;;;;2.40;1.40;;;;;;;-1.25;100.00;97557.91;6100890;19;20025;-75
2023/11/25 06:06:55;;;;;;;2.20;1.30;;;;;;;-1.25;100.00;97566.84;6098242;19;20111;-75
2023/11/25 06:08:55;;;;;;;3.08;1.15;;;;;;;-1.28;100.00;97567.50;6099945;19;20424;-75
2023/11/25 06:10:56;;;;;;;7.03;1.80;;;;;;;-1.30;100.00;97561.59;6100742;19;20796;-75
2023/11/25 06:12:56;;;;;;;3.53;1.40;;;;;;;-1.25;100.00;97555.97;6100680;19;20002;-75
2023/11/25 06:14:56;;;;;;;4.10;1.42;;;;;;;-1.22;100.00;97551.84;6098193;19;20039;-76
2023/11/25 06:16:58;;;;;;;2.72;1.75;;;;;;;-1.20;100.00;97544.97;6101485;19;20372;-75
2023/11/25 06:19:00;;;;;;;4.88;1.65;;;;;;;-1.19;100.00;97551.19;6099919;19;20006;-75
2023/11/25 06:21:02;;;;;;;3.88;1.60;;;;;;;-1.18;100.00;97531.06;6100995;19;20422;-75
2023/11/25 06:23:03;;;;;;;3.35;1.88;;;;;;;-1.18;100.00;97525.63;6101301;19;20018;-75
2023/11/25 06:25:05;;;;;;;5.00;1.73;;;;;;;-1.18;100.00;97545.44;6101561;19;20375;-76
2023/11/25 06:27:05;;;;;;;5.50;2.30;;;;;;;-1.15;100.00;97538.56;6098255;19;20030;-75
2023/11/25 06:29:06;;;;;;;5.32;2.17;;;;;;;-1.13;100.00;97537.13;6100809;19;20002;-75
2023/11/25 06:31:16;;;;;;;3.85;1.80;;;;;;;-1.09;100.00;97534.53;6101979;19;20097;-75
2023/11/25 06:33:17;;;;;;;5.60;1.95;;;;;;;-1.08;100.00;97527.97;6099837;19;20010;-75
2023/11/25 06:35:17;;;;;;;4.63;1.70;;;;;;;-1.08;100.00;97527.19;6101099;19;20276;-75
2023/11/25 06:37:18;;;;;;;4.57;2.00;;;;;;;-1.08;100.00;97525.28;6099540;19;20978;-75
2023/11/25 06:39:19;;;;;;;3.95;1.83;;;;;;;-1.06;100.00;97527.69;6100349;19;20036;-75
2023/11/25 06:41:23;;;;;;;11.65;2.50;;;;;;;-1.04;100.00;97523.50;6100665;19;20321;-75
2023/11/25 06:43:24;;;;;;;3.22;1.95;;;;;;;-0.88;100.00;97527.28;6100583;19;20003;-75
2023/11/25 06:45:26;;;;;;;3.85;2.05;;;;;;;-0.89;100.00;97520.25;6101607;19;20206;-75
2023/11/25 06:47:27;;;;;;;5.07;2.35;;;;;;;-0.79;100.00;97519.09;6103383;19;20339;-75
2023/11/25 06:49:27;;;;;;;5.72;2.00;;;;;;;-0.76;100.00;97526.56;6106364;19;20032;-75
2023/11/25 06:51:28;;;;;;;6.45;2.20;;;;;;;-0.76;100.00;97531.22;6106533;19;20034;-75
2023/11/25 06:53:29;;;;;;;8.52;2.67;;;;;;;-0.72;100.00;97534.88;6105160;19;20007;-75
2023/11/25 06:55:31;;;;;;;7.80;1.98;;;;;;;-0.69;100.00;97529.59;6105311;19;20093;-75
2023/11/25 06:57:32;;;;;;;4.07;1.90;;;;;;;-0.61;100.00;97536.88;6104866;19;20035;-75
2023/11/25 06:59:32;;;;;;;5.18;2.28;;;;;;;-0.62;100.00;97540.72;6105255;19;20007;-75
2023/11/25 07:01:33;;;;;;;7.20;2.53;;;;;;;-0.65;100.00;97538.69;6104822;19;20861;-75
2023/11/25 07:03:34;;;;;;;5.43;2.10;;;;;;;-0.58;100.00;97541.69;6104298;19;20010;-75
2023/11/25 07:05:35;;;;;;;3.75;2.10;;;;;;;-0.59;100.00;97545.50;6105063;19;20331;-75
2023/11/25 07:07:36;;;;;;;3.50;2.00;;;;;;;-0.55;100.00;97555.72;6103052;19;20078;-75
2023/11/25 07:09:37;;;;;;;8.18;2.30;;;;;;;-0.54;100.00;97551.88;6104343;19;20010;-75
2023/11/25 07:11:37;;;;;;;10.52;2.83;;;;;;;-0.55;100.00;97550.31;6105804;19;20045;-75
2023/11/25 07:13:37;;;;;;;9.93;4.30;;;;;;;-0.49;100.00;97552.50;6102622;19;20010;-75
2023/11/25 07:15:40;;;;;;;7.78;2.92;;;;;;;-0.47;100.00;97555.69;5994512;19;20615;-75
2023/11/25 07:17:40;;;;;;;9.18;3.97;;;;;;;-0.38;100.00;97561.06;6099623;19;20009;-76
2023/11/25 07:19:42;;;;;;;5.53;2.90;;;;;;;-0.36;100.00;97564.25;6105158;19;20073;-75
2023/11/25 07:21:43;;;;;;;6.25;2.17;;;;;;;-0.32;100.00;97546.19;6103584;19;20475;-75
2023/11/25 07:23:43;;;;;;;10.70;2.78;;;;;;;-0.30;100.00;97550.16;6103445;19;20094;-75
2023/11/25 07:25:45;;;;;;;5.22;2.10;;;;;;;-0.26;100.00;97555.72;6104774;19;20467;-75
2023/11/25 07:27:47;;;;;;;3.72;2.67;;;;;;;-0.23;100.00;97551.56;6102380;19;20045;-75
2023/11/25 07:29:49;;;;;;;4.00;1.58;;;;;;;-0.21;100.00;97544.66;6104525;19;20014;-75
2023/11/25 07:31:49;;;;;;;10.60;3.15;;;;;;;-0.19;100.00;97545.09;6104425;19;20019;-75
2023/11/25 07:33:49;;;;;;;5.78;2.70;;;;;;;-0.11;100.00;97541.53;6103380;19;20118;-75
2023/11/25 07:35:50;;;;;;;3.95;2.10;;;;;;;-0.13;100.00;97551.94;6103751;19;20026;-75
2023/11/25 07:37:50;;;;;;;7.05;2.58;;;;;;;-0.07;100.00;97549.84;6101853;19;20010;-76
2023/11/25 07:39:50;;;;;;;7.05;2.47;;;;;;;-0.08;100.00;97543.63;6103544;19;20007;-75
2023/11/25 07:41:53;;;;;;;4.78;2.40;;;;;;;-0.04;100.00;97541.81;6103529;19;20007;-76
2023/11/25 07:43:54;;;;;;;2.83;2.33;;;;;;;-0.02;100.00;97536.81;6103534;19;20015;-76
2023/11/25 07:45:54;;;;;;;5.80;2.15;;;;;;;0.06;100.00;97531.66;6103281;19;19999;-75
2023/11/25 07:47:54;;;;;;;7.88;2.50;;;;;;;0.07;100.00;97530.53;6101585;19;20014;-76
2023/11/25 07:49:55;;;;;;;4.95;2.42;;;;;;;0.05;100.00;97530.06;6103895;19;20023;-75
2023/11/25 07:51:55;;;;;;;8.02;3.47;;;;;;;0.04;100.00;97536.63;6103307;19;20347;-75
2023/11/25 07:53:56;;;;;;;11.55;4.15;;;;;;;0.11;100.00;97534.97;6102861;19;20017;-76
2023/11/25 07:55:56;;;;;;;13.27;4.20;;;;;;;0.08;100.00;97538.34;6103140;19;20029;-76
2023/11/25 07:57:58;;;;;;;9.20;3.45;;;;;;;0.10;100.00;97533.41;6100064;19;20011;-76
2023/11/25 07:59:59;;;;;;;8.20;2.67;;;;;;;0.09;100.00;97536.44;6104186;19;20545;-76
2023/11/25 08:01:59;;;;;;;4.78;2.20;;;;;;;0.04;100.00;97534.72;6104918;19;20013;-76
2023/11/25 08:04:00;;;;;;;5.90;2.03;;;;;;;-0.01;100.00;97538.41;6101790;19;20018;-76
2023/11/25 08:06:00;;;;;;;7.68;2.38;;;;;;;0.01;100.00;97535.38;6103815;19;20011;-76
2023/11/25 08:08:00;;;;;;;4.97;2.08;;;;;;;0.04;100.00;97531.19;6101832;19;20354;-76
2023/11/25 08:10:03;;;;;;;14.35;2.97;;;;;;;0.05;100.00;97530.06;6102163;19;20010;-76
2023/11/25 08:12:04;;;;;;;3.55;2.22;;;;;;;0.05;100.00;97528.13;6099256;19;20528;-75
2023/11/25 08:14:04;;;;;;;10.52;1.95;;;;;;;0.06;100.00;97526.22;6103337;19;20343;-75
2023/11/25 08:16:07;;;;;;;6.63;2.38;;;;;;;0.06;100.00;97532.44;6101416;19;20007;-76
2023/11/25 08:18:08;;;;;;;3.65;2.00;;;;;;;0.06;100.00;97512.63;6101357;19;20043;-76
2023/11/25 08:20:10;;;;;;;40.30;20.33;;;;;;;0.08;100.00;97516.59;6104129;19;20483;-75
2023/11/25 08:22:10;;;;;;;17.40;6.90;;;;;;;0.12;100.00;97517.53;6100622;19;20443;-76
2023/11/25 08:24:10;;;;;;;10.38;4.10;;;;;;;0.19;100.00;97511.56;6103254;19;20019;-76
2023/11/25 08:26:18;;;;;;;8.43;3.85;;;;;;;0.25;100.00;97529.28;6103340;19;20007;-76
2023/11/25 08:28:19;;;;;;;7.28;2.92;;;;;;;0.30;100.00;97518.16;6094125;19;20034;-76
2023/11/25 08:30:20;;;;;;;4.05;1.88;;;;;;;0.34;100.00;97516.38;6099584;19;20006;-76
2023/11/25 08:32:21;;;;;;;6.95;2.83;;;;;;;0.34;100.00;97524.56;6101918;19;21303;-76
2023/11/25 08:34:22;;;;;;;8.38;2.80;;;;;;;0.47;100.00;97530.81;6102723;19;20018;-76
2023/11/25 08:36:22;;;;;;;10.05;2.70;;;;;;;0.50;100.00;97519.28;6102410;19;20006;-76
2023/11/25 08:38:22;;;;;;;5.50;2.58;;;;;;;0.46;100.00;97516.41;6098795;19;20145;-76
2023/11/25 08:40:23;;;;;;;6.25;2.78;;;;;;;0.49;100.00;97520.38;6102900;19;20351;-76
2023/11/25 08:42:28;;;;;;;13.98;2.60;;;;;;;0.57;100.00;97516.78;6101176;19;20475;-75
2023/11/25 08:44:29;;;;;;;9.88;2.45;;;;;;;0.50;100.00;97517.34;6102164;19;20019;-76
2023/11/25 08:46:29;;;;;;;10.40;3.42;;;;;;;0.49;100.00;97515.72;6101692;19;20006;-76
2023/11/25 08:48:30;;;;;;;9.57;2.60;;;;;;;0.55;100.00;97524.50;6093433;19;20010;-76
2023/11/25 08:50:30;;;;;;;7.93;2.65;;;;;;;0.56;100.00;97507.03;6099023;19;20007;-76
2023/11/25 08:52:34;;;;;;;7.68;2.70;;;;;;;0.54;100.00;97503.84;6098333;19;20011;-75
2023/11/25 08:54:37;;;;;;;8.93;2.38;;;;;;;0.63;100.00;97501.84;6098467;19;20545;-76
2023/11/25 08:56:40;;;;;;;4.70;2.20;;;;;;;0.60;100.00;97507.16;6097588;19;20275;-75
2023/11/25 08:58:40;;;;;;;10.18;2.42;;;;;;;0.62;100.00;97504.91;6098167;19;20015;-75
2023/11/25 09:00:41;;;;;;;5.93;2.03;;;;;;;0.61;100.00;97497.88;6099359;19;20018;-76
2023/11/25 09:02:43;;;;;;;4.68;2.35;;;;;;;0.68;100.00;97511.72;6098682;19;20007;-76
2023/11/25 09:04:43;;;;;;;8.50;2.88;;;;;;;0.68;100.00;97511.72;6099474;19;20013;-76
2023/11/25 09:06:46;;;;;;;4.30;2.10;;;;;;;0.69;100.00;97507.88;6097354;19;20311;-75
2023/11/25 09:08:48;;;;;;;3.15;1.90;;;;;;;0.75;100.00;97501.09;6100918;19;20011;-76
2023/11/25 09:10:49;;;;;;;8.45;2.50;;;;;;;0.79;100.00;97510.94;6101761;19;20502;-76
2023/11/25 09:12:52;;;;;;;7.22;3.15;;;;;;;0.74;100.00;97502.97;6102234;19;20765;-76
2023/11/25 09:14:53;;;;;;;4.38;1.90;;;;;;;0.70;100.00;97491.19;6101489;19;20025;-76
2023/11/25 09:16:54;;;;;;;5.30;2.15;;;;;;;0.75;100.00;97501.88;6102217;19;20336;-76
2023/11/25 09:18:54;;;;;;;5.28;2.22;;;;;;;0.75;100.00;97490.97;6100026;19;20441;-76
2023/11/25 09:20:55;;;;;;;6.38;2.10;;;;;;;0.79;100.00;97494.59;6102131;19;20015;-76
2023/11/25 09:22:55;;;;;;;7.78;2.20;;;;;;;0.77;100.00;97486.00;6101406;19;20230;-76
2023/11/25 09:24:56;;;;;;;12.65;2.67;;;;;;;0.75;100.00;97487.47;6101959;19;20011;-76